createdAt,value
2018-06-25T00:01:48.002Z,65.30
2018-06-25T00:04:16.401Z,65.30
2018-06-25T00:06:45.924Z,65.30
2018-06-25T00:09:14.442Z,65.30
2018-06-25T00:11:42.965Z,65.20
2018-06-25T00:14:11.497Z,65.30
2018-06-25T00:16:40.148Z,65.20
2018-06-25T00:19:08.597Z,65.20
2018-06-25T00:21:37.134Z,65.20
2018-06-25T00:24:05.677Z,65.20
2018-06-25T00:26:34.108Z,65.20
2018-06-25T00:29:02.572Z,65.20
2018-06-25T00:31:30.997Z,65.20
2018-06-25T00:33:59.433Z,65.20
2018-06-25T00:36:27.868Z,65.20
2018-06-25T00:38:56.306Z,65.20
2018-06-25T00:41:24.731Z,65.20
2018-06-25T00:43:53.159Z,65.20
2018-06-25T00:46:21.600Z,65.20
2018-06-25T00:48:50.041Z,65.30
2018-06-25T00:51:18.475Z,65.20
2018-06-25T00:53:46.949Z,65.20
2018-06-25T00:56:15.385Z,65.20
2018-06-25T00:58:55.089Z,65.20
2018-06-25T01:01:23.564Z,65.20
2018-06-25T01:03:52.001Z,65.30
2018-06-25T01:06:20.431Z,65.20
2018-06-25T01:08:48.853Z,65.30
2018-06-25T01:11:17.301Z,65.30
2018-06-25T01:13:45.724Z,65.30
2018-06-25T01:16:15.267Z,65.30
2018-06-25T01:18:44.769Z,65.20
2018-06-25T01:21:13.876Z,65.30
2018-06-25T01:23:43.005Z,65.30
2018-06-25T01:26:11.486Z,65.30
2018-06-25T01:28:39.886Z,65.30
2018-06-25T01:31:08.329Z,65.20
2018-06-25T01:33:36.755Z,65.30
2018-06-25T01:36:05.152Z,65.30
2018-06-25T01:38:33.554Z,65.30
2018-06-25T01:41:01.950Z,65.30
2018-06-25T01:43:30.335Z,65.30
2018-06-25T01:45:58.730Z,65.30
2018-06-25T01:48:27.131Z,65.40
2018-06-25T01:50:55.529Z,65.30
2018-06-25T01:53:23.924Z,65.30
2018-06-25T01:55:52.333Z,65.30
2018-06-25T01:58:20.719Z,65.30
2018-06-25T02:00:49.127Z,65.30
2018-06-25T02:03:18.434Z,65.30
2018-06-25T02:05:46.841Z,65.40
2018-06-25T02:08:16.512Z,65.40
2018-06-25T02:10:45.950Z,65.20
2018-06-25T02:13:14.436Z,65.40
2018-06-25T02:15:43.777Z,65.20
2018-06-25T02:18:12.896Z,65.40
2018-06-25T02:23:09.437Z,65.20
2018-06-25T02:28:06.408Z,65.20
2018-06-25T02:30:34.814Z,65.20
2018-06-25T02:33:03.221Z,65.30
2018-06-25T02:35:31.626Z,65.20
2018-06-25T02:38:00.073Z,65.20
2018-06-25T02:40:28.470Z,65.20
2018-06-25T02:42:57.064Z,65.20
2018-06-25T02:45:25.470Z,65.20
2018-06-25T02:47:53.870Z,65.20
2018-06-25T02:50:22.289Z,65.20
2018-06-25T02:52:50.690Z,65.20
2018-06-25T02:55:19.100Z,65.20
2018-06-25T02:57:47.507Z,65.20
2018-06-25T03:00:15.929Z,65.20
2018-06-25T03:02:45.531Z,65.20
2018-06-25T03:05:14.920Z,65.20
2018-06-25T03:07:43.851Z,65.20
2018-06-25T03:10:13.179Z,65.20
2018-06-25T03:12:41.657Z,65.30
2018-06-25T03:15:10.107Z,65.30
2018-06-25T03:17:38.685Z,65.30
2018-06-25T03:20:07.093Z,65.30
2018-06-25T03:22:35.506Z,65.30
2018-06-25T03:25:03.933Z,65.30
2018-06-25T03:27:32.349Z,65.20
2018-06-25T03:30:00.831Z,65.20
2018-06-25T03:32:29.576Z,65.30
2018-06-25T03:34:59.125Z,65.20
2018-06-25T03:37:27.612Z,65.20
2018-06-25T03:39:56.028Z,65.20
2018-06-25T03:42:24.434Z,65.30
2018-06-25T03:44:53.882Z,65.30
2018-06-25T03:47:22.289Z,65.30
2018-06-25T03:49:50.906Z,65.30
2018-06-25T03:52:19.367Z,65.30
2018-06-25T03:54:47.789Z,65.30
2018-06-25T03:57:16.386Z,65.30
2018-06-25T04:02:13.868Z,65.30
2018-06-25T04:04:42.962Z,65.20
2018-06-25T04:07:11.575Z,65.30
2018-06-25T04:09:39.985Z,65.20
2018-06-25T04:12:08.429Z,65.30
2018-06-25T04:14:36.992Z,65.20
2018-06-25T04:17:05.583Z,65.20
2018-06-25T04:19:33.988Z,65.30
2018-06-25T04:22:02.390Z,65.20
2018-06-25T04:24:30.836Z,65.20
2018-06-25T04:26:59.334Z,65.30
2018-06-25T04:29:27.949Z,65.20
2018-06-25T04:31:56.464Z,65.20
2018-06-25T04:34:24.938Z,65.20
2018-06-25T04:36:53.506Z,65.20
2018-06-25T04:39:21.909Z,65.20
2018-06-25T04:41:50.322Z,65.20
2018-06-25T04:44:18.972Z,65.20
2018-06-25T04:46:47.385Z,65.20
2018-06-25T04:49:15.784Z,65.20
2018-06-25T04:51:44.478Z,65.10
2018-06-25T04:54:13.006Z,65.20
2018-06-25T04:56:41.520Z,65.20
2018-06-25T04:59:09.947Z,65.20
2018-06-25T05:01:39.013Z,65.20
2018-06-25T05:04:07.430Z,65.20
2018-06-25T05:06:36.044Z,65.10
2018-06-25T05:09:07.467Z,65.20
2018-06-25T05:11:35.886Z,65.10
2018-06-25T05:14:04.350Z,65.10
2018-06-25T05:16:32.803Z,65.10
2018-06-25T05:19:01.268Z,65.10
2018-06-25T05:21:29.702Z,65.00
2018-06-25T05:23:58.435Z,65.00
2018-06-25T05:26:26.845Z,65.00
2018-06-25T05:28:55.283Z,65.00
2018-06-25T05:31:23.910Z,65.00
2018-06-25T05:33:52.324Z,65.00
2018-06-25T05:36:20.728Z,65.00
2018-06-25T05:38:49.151Z,65.00
2018-06-25T05:41:17.555Z,64.90
2018-06-25T05:43:45.977Z,64.80
2018-06-25T05:46:14.898Z,64.90
2018-06-25T05:48:44.122Z,64.80
2018-06-25T05:51:13.033Z,64.90
2018-06-25T05:53:41.749Z,64.90
2018-06-25T05:56:10.200Z,64.80
2018-06-25T05:58:38.616Z,64.90
2018-06-25T06:01:07.058Z,64.90
2018-06-25T06:03:35.517Z,64.90
2018-06-25T06:06:03.938Z,64.80
2018-06-25T06:08:32.364Z,64.90
2018-06-25T06:11:00.773Z,64.70
2018-06-25T06:15:57.338Z,64.80
2018-06-25T06:18:25.807Z,64.80
2018-06-25T06:20:54.241Z,64.80
2018-06-25T06:23:22.653Z,64.70
2018-06-25T06:25:51.069Z,64.70
2018-06-25T06:28:19.487Z,64.70
2018-06-25T06:30:47.993Z,64.60
2018-06-25T06:33:16.406Z,64.60
2018-06-25T06:35:45.793Z,64.70
2018-06-25T06:38:15.174Z,64.70
2018-06-25T06:40:43.945Z,64.70
2018-06-25T06:43:13.807Z,64.70
2018-06-25T06:45:43.022Z,64.70
2018-06-25T06:48:11.488Z,64.70
2018-06-25T06:53:08.065Z,64.80
2018-06-25T06:55:36.501Z,64.80
2018-06-25T06:58:05.102Z,64.90
2018-06-25T07:00:33.514Z,64.80
2018-06-25T07:03:01.927Z,64.90
2018-06-25T07:05:30.375Z,64.90
2018-06-25T07:07:58.790Z,64.90
2018-06-25T07:10:27.195Z,64.90
2018-06-25T07:12:55.885Z,64.90
2018-06-25T07:15:24.384Z,64.90
2018-06-25T07:17:52.814Z,64.90
2018-06-25T07:20:21.497Z,64.90
2018-06-25T07:22:49.909Z,64.90
2018-06-25T07:25:18.425Z,64.90
2018-06-25T07:27:46.869Z,64.90
2018-06-25T07:30:15.913Z,64.90
2018-06-25T07:32:44.461Z,64.90
2018-06-25T07:35:12.957Z,64.90
2018-06-25T07:37:41.549Z,64.90
2018-06-25T07:40:09.987Z,64.80
2018-06-25T07:42:38.412Z,64.80
2018-06-25T07:45:06.853Z,64.80
2018-06-25T07:47:35.265Z,64.80
2018-06-25T07:50:03.711Z,64.80
2018-06-25T07:52:32.111Z,65.60
2018-06-25T07:55:00.538Z,64.80
2018-06-25T07:57:28.949Z,64.70
2018-06-25T07:59:57.361Z,64.70
2018-06-25T08:02:25.788Z,64.70
2018-06-25T08:04:54.316Z,64.70
2018-06-25T08:07:22.749Z,64.70
2018-06-25T08:09:51.392Z,64.90
2018-06-25T08:12:19.730Z,64.80
2018-06-25T08:14:48.156Z,64.70
2018-06-25T08:17:16.573Z,64.80
2018-06-25T08:19:45.102Z,64.70
2018-06-25T08:22:14.684Z,64.60
2018-06-25T08:24:43.792Z,64.70
2018-06-25T08:27:13.057Z,65.50
2018-06-25T08:29:41.531Z,64.70
2018-06-25T08:32:09.985Z,64.70
2018-06-25T08:34:38.433Z,64.60
2018-06-25T08:37:06.947Z,64.60
2018-06-25T08:39:35.305Z,64.60
2018-06-25T08:42:03.714Z,64.70
2018-06-25T08:44:32.137Z,64.60
2018-06-25T08:47:00.574Z,64.50
2018-06-25T08:49:29.021Z,64.50
2018-06-25T08:51:57.457Z,64.50
2018-06-25T08:54:25.909Z,64.50
2018-06-25T08:56:54.398Z,64.50
2018-06-25T08:59:22.770Z,64.50
2018-06-25T09:01:51.595Z,64.40
2018-06-25T09:04:20.067Z,64.40
2018-06-25T09:06:48.452Z,65.10
2018-06-25T09:09:16.867Z,65.20
2018-06-25T09:11:46.387Z,64.40
2018-06-25T09:14:15.922Z,64.40
2018-06-25T09:16:44.504Z,64.30
2018-06-25T09:19:13.365Z,64.20
2018-06-25T09:21:41.814Z,64.30
2018-06-25T09:24:10.235Z,64.20
2018-06-25T09:26:40.384Z,64.20
2018-06-25T09:29:09.591Z,64.20
2018-06-25T09:31:38.006Z,64.20
2018-06-25T09:34:10.649Z,64.20
2018-06-25T09:36:39.839Z,64.10
2018-06-25T09:39:10.165Z,64.10
2018-06-25T09:41:38.810Z,64.10
2018-06-25T09:44:07.228Z,64.20
2018-06-25T09:46:35.673Z,64.20
2018-06-25T09:49:04.148Z,64.20
2018-06-25T09:51:32.694Z,64.20
2018-06-25T09:54:01.154Z,64.20
2018-06-25T09:56:29.788Z,64.10
2018-06-25T09:58:58.288Z,64.20
2018-06-25T10:01:26.714Z,64.20
2018-06-25T10:03:55.149Z,65.00
2018-06-25T10:06:23.705Z,64.10
2018-06-25T10:11:20.273Z,64.30
2018-06-25T10:13:48.703Z,64.20
2018-06-25T10:16:17.122Z,64.20
2018-06-25T10:18:45.550Z,64.20
2018-06-25T10:21:15.382Z,64.20
2018-06-25T10:23:43.948Z,64.30
2018-06-25T10:26:12.873Z,64.30
2018-06-25T10:28:41.426Z,64.20
2018-06-25T10:31:10.241Z,64.10
2018-06-25T10:33:38.832Z,64.20
2018-06-25T10:36:07.374Z,64.20
2018-06-25T10:38:35.808Z,64.20
2018-06-25T10:43:32.390Z,64.10
2018-06-25T10:46:00.881Z,64.10
2018-06-25T10:48:29.311Z,64.10
2018-06-25T10:50:57.756Z,64.10
2018-06-25T10:53:26.202Z,64.00
2018-06-25T10:55:54.626Z,64.10
2018-06-25T10:58:23.108Z,64.00
2018-06-25T11:00:51.544Z,64.10
2018-06-25T11:03:20.124Z,64.10
2018-06-25T11:05:48.603Z,64.10
2018-06-25T11:08:17.187Z,64.10
2018-06-25T11:10:45.614Z,64.00
2018-06-25T11:13:15.079Z,64.00
2018-06-25T11:15:44.501Z,64.00
2018-06-25T11:18:14.388Z,64.00
2018-06-25T11:20:43.802Z,64.00
2018-06-25T11:23:13.020Z,64.00
2018-06-25T11:25:41.438Z,64.00
2018-06-25T11:28:09.878Z,64.00
2018-06-25T11:30:38.301Z,64.00
2018-06-25T11:33:06.767Z,64.00
2018-06-25T11:35:35.200Z,63.90
2018-06-25T11:38:03.616Z,64.00
2018-06-25T11:40:32.046Z,64.00
2018-06-25T11:43:00.470Z,63.90
2018-06-25T11:45:28.900Z,63.90
2018-06-25T11:47:57.308Z,63.80
2018-06-25T11:50:25.722Z,63.90
2018-06-25T11:52:54.140Z,63.90
2018-06-25T11:55:22.570Z,63.80
2018-06-25T11:57:50.998Z,63.90
2018-06-25T12:00:19.421Z,64.00
2018-06-25T12:02:47.881Z,63.90
2018-06-25T12:05:16.300Z,63.80
2018-06-25T12:07:45.342Z,63.80
2018-06-25T12:10:13.820Z,63.80
2018-06-25T12:12:43.075Z,63.90
2018-06-25T12:15:11.628Z,63.80
2018-06-25T12:17:40.045Z,63.80
2018-06-25T12:20:08.498Z,63.90
2018-06-25T12:22:36.853Z,64.60
2018-06-25T12:25:05.279Z,63.90
2018-06-25T12:27:33.736Z,64.00
2018-06-25T12:30:02.195Z,63.90
2018-06-25T12:32:30.565Z,64.00
2018-06-25T12:34:58.991Z,64.00
2018-06-25T12:37:27.366Z,64.00
2018-06-25T12:39:55.782Z,63.90
2018-06-25T12:42:24.321Z,63.90
2018-06-25T12:44:52.721Z,63.90
2018-06-25T12:47:21.126Z,63.90
2018-06-25T12:49:49.574Z,63.90
2018-06-25T12:52:17.992Z,63.90
2018-06-25T12:54:46.389Z,64.70
2018-06-25T12:57:15.812Z,63.90
2018-06-25T12:59:45.395Z,63.80
2018-06-25T13:02:17.490Z,63.80
2018-06-25T13:04:46.027Z,63.80
2018-06-25T13:07:15.150Z,63.80
2018-06-25T13:09:44.659Z,63.80
2018-06-25T13:12:14.129Z,63.80
2018-06-25T13:14:42.958Z,63.80
2018-06-25T13:17:11.432Z,63.80
2018-06-25T13:19:39.929Z,63.80
2018-06-25T13:22:08.440Z,63.80
2018-06-25T13:24:36.881Z,63.80
2018-06-25T13:27:05.896Z,63.60
2018-06-25T13:29:34.305Z,63.80
2018-06-25T13:32:02.713Z,63.80
2018-06-25T13:34:31.168Z,63.80
2018-06-25T13:36:59.605Z,63.80
2018-06-25T13:39:28.459Z,63.80
2018-06-25T13:41:57.018Z,63.80
2018-06-25T13:44:25.470Z,63.70
2018-06-25T13:46:54.683Z,63.70
2018-06-25T13:49:23.190Z,63.70
2018-06-25T13:51:51.621Z,63.70
2018-06-25T13:54:20.051Z,64.50
2018-06-25T13:56:48.477Z,63.60
2018-06-25T13:59:16.916Z,63.60
2018-06-25T14:01:45.537Z,63.80
2018-06-25T14:04:14.949Z,63.70
2018-06-25T14:06:43.884Z,63.70
2018-06-25T14:09:13.334Z,63.70
2018-06-25T14:11:41.992Z,63.80
2018-06-25T14:14:10.485Z,63.80
2018-06-25T14:16:39.456Z,63.80
2018-06-25T14:19:07.932Z,63.80
2018-06-25T14:21:36.451Z,63.80
2018-06-25T14:24:10.392Z,63.90
2018-06-25T14:26:44.620Z,64.00
2018-06-25T14:29:18.458Z,63.80
2018-06-25T14:32:07.727Z,63.80
2018-06-25T14:34:36.250Z,64.20
2018-06-25T14:37:05.007Z,63.90
2018-06-25T14:39:33.421Z,63.90
2018-06-25T14:42:01.849Z,64.10
2018-06-25T14:44:30.376Z,64.00
2018-06-25T14:46:58.869Z,64.00
2018-06-25T14:49:28.094Z,64.00
2018-06-25T14:51:56.511Z,64.10
2018-06-25T14:54:25.048Z,64.10
2018-06-25T14:56:53.461Z,64.10
2018-06-25T14:59:22.041Z,64.20
2018-06-25T15:01:50.428Z,64.20
2018-06-25T15:04:18.861Z,64.20
2018-06-25T15:06:47.317Z,64.20
2018-06-25T15:09:15.746Z,64.20
2018-06-25T15:11:45.381Z,64.20
2018-06-25T15:14:13.943Z,64.30
2018-06-25T15:16:43.689Z,64.30
2018-06-25T15:19:12.914Z,64.30
2018-06-25T15:21:41.335Z,64.50
2018-06-25T15:24:09.911Z,64.20
2018-06-25T15:26:38.323Z,64.20
2018-06-25T15:29:07.123Z,64.40
2018-06-25T15:31:35.537Z,64.20
2018-06-25T15:34:03.988Z,64.20
2018-06-25T15:39:00.827Z,64.30
2018-06-25T15:41:29.602Z,64.30
2018-06-25T15:43:58.537Z,64.30
2018-06-25T15:46:26.962Z,64.30
2018-06-25T15:48:56.269Z,64.40
2018-06-25T15:51:24.703Z,64.40
2018-06-25T15:53:53.262Z,64.40
2018-06-25T15:56:21.702Z,64.40
2018-06-25T15:58:50.138Z,64.40
2018-06-25T16:01:18.805Z,64.40
2018-06-25T16:03:47.389Z,64.40
2018-06-25T16:06:15.821Z,64.40
2018-06-25T16:08:45.549Z,64.40
2018-06-25T16:11:15.446Z,64.40
2018-06-25T16:13:44.988Z,64.40
2018-06-25T16:16:14.756Z,64.40
2018-06-25T16:18:44.554Z,64.90
2018-06-25T16:21:13.975Z,64.40
2018-06-25T16:23:42.889Z,64.30
2018-06-25T16:26:13.375Z,64.40
2018-06-25T16:31:10.825Z,64.50
2018-06-25T16:33:39.431Z,64.40
2018-06-25T16:36:08.679Z,64.40
2018-06-25T16:38:37.808Z,64.40
2018-06-25T16:41:08.083Z,64.40
2018-06-25T16:43:36.830Z,64.50
2018-06-25T16:46:05.683Z,64.50
2018-06-25T16:48:34.367Z,64.50
2018-06-25T16:51:02.920Z,64.50
2018-06-25T16:53:31.418Z,64.50
2018-06-25T16:58:28.297Z,64.50
2018-06-25T17:00:56.754Z,64.50
2018-06-25T17:03:25.331Z,64.50
2018-06-25T17:05:53.790Z,64.50
2018-06-25T17:08:22.453Z,64.70
2018-06-25T17:10:51.067Z,64.70
2018-06-25T17:13:19.665Z,64.70
2018-06-25T17:15:48.186Z,64.70
2018-06-25T17:18:16.784Z,64.70
2018-06-25T17:20:45.579Z,64.70
2018-06-25T17:23:15.093Z,65.50
2018-06-25T17:25:43.786Z,64.70
2018-06-25T17:28:12.940Z,64.80
2018-06-25T17:30:41.812Z,64.70
2018-06-25T17:33:10.700Z,64.70
2018-06-25T17:35:39.253Z,65.00
2018-06-25T17:38:07.754Z,64.70
2018-06-25T17:40:36.247Z,64.80
2018-06-25T17:43:04.940Z,64.90
2018-06-25T17:48:01.793Z,64.90
2018-06-25T17:50:30.392Z,64.90
2018-06-25T17:52:58.881Z,65.00
2018-06-25T17:57:55.621Z,65.00
2018-06-25T18:00:24.317Z,65.00
2018-06-25T18:02:52.833Z,64.90
2018-06-25T18:05:21.368Z,65.00
2018-06-25T18:07:49.845Z,65.00
2018-06-25T18:10:18.520Z,65.00
2018-06-25T18:12:46.978Z,65.00
2018-06-25T18:15:15.965Z,65.00
2018-06-25T18:17:45.596Z,65.00
2018-06-25T18:20:15.388Z,65.00
2018-06-25T18:22:44.626Z,65.00
2018-06-25T18:25:13.751Z,65.00
2018-06-25T18:27:42.868Z,65.10
2018-06-25T18:30:11.457Z,65.20
2018-06-25T18:32:39.862Z,65.00
2018-06-25T18:35:08.455Z,65.20
2018-06-25T18:37:36.921Z,65.00
2018-06-25T18:40:05.661Z,65.10
2018-06-25T18:42:34.061Z,65.30
2018-06-25T18:47:30.624Z,65.20
2018-06-25T18:49:59.111Z,65.20
2018-06-25T18:52:27.549Z,65.20
2018-06-25T18:54:55.964Z,65.20
2018-06-25T18:57:24.606Z,65.20
2018-06-25T18:59:53.023Z,65.20
2018-06-25T19:02:22.241Z,65.20
2018-06-25T19:04:50.639Z,65.30
2018-06-25T19:07:19.041Z,65.30
2018-06-25T19:09:47.441Z,65.30
2018-06-25T19:12:15.851Z,65.40
2018-06-25T19:14:45.935Z,65.30
2018-06-25T19:17:14.427Z,65.30
2018-06-25T19:19:42.931Z,64.90
2018-06-25T19:24:39.459Z,64.80
2018-06-25T19:27:07.869Z,64.80
2018-06-25T19:29:36.365Z,64.80
2018-06-25T19:32:04.818Z,64.80
2018-06-25T19:34:33.281Z,64.90
2018-06-25T19:37:01.715Z,64.90
2018-06-25T19:39:30.221Z,65.00
2018-06-25T19:41:58.627Z,65.00
2018-06-25T19:44:27.634Z,65.00
2018-06-25T19:46:56.054Z,65.10
2018-06-25T19:49:24.512Z,65.10
2018-06-25T19:51:52.935Z,65.00
2018-06-25T19:54:21.360Z,65.00
2018-06-25T19:56:49.787Z,65.10
2018-06-25T19:59:18.217Z,65.90
2018-06-25T20:01:46.650Z,65.10
2018-06-25T20:04:15.898Z,65.90
2018-06-25T20:06:45.483Z,65.20
2018-06-25T20:09:14.661Z,65.20
2018-06-25T20:11:43.800Z,65.20
2018-06-25T20:14:12.935Z,65.20
2018-06-25T20:16:41.432Z,65.30
2018-06-25T20:19:09.764Z,65.30
2018-06-25T20:21:38.211Z,65.30
2018-06-25T20:24:06.755Z,65.20
2018-06-25T20:26:35.146Z,65.40
2018-06-25T20:29:03.796Z,65.20
2018-06-25T20:31:32.251Z,65.20
2018-06-25T20:34:00.902Z,65.20
2018-06-25T20:36:29.398Z,65.30
2018-06-25T20:38:57.877Z,65.30
2018-06-25T20:41:26.314Z,65.40
2018-06-25T20:43:54.733Z,65.40
2018-06-25T20:46:23.221Z,65.40
2018-06-25T20:48:51.634Z,65.40
2018-06-25T20:51:20.034Z,65.40
2018-06-25T20:53:48.441Z,65.40
2018-06-25T20:56:16.855Z,65.40
2018-06-25T20:58:46.519Z,65.40
2018-06-25T21:01:16.025Z,65.50
2018-06-25T21:03:45.729Z,65.50
2018-06-25T21:06:15.161Z,66.00
2018-06-25T21:11:34.359Z,65.50
2018-06-25T21:14:02.825Z,65.50
2018-06-25T21:16:31.252Z,65.50
2018-06-25T21:18:59.685Z,65.50
2018-06-25T21:21:28.108Z,65.60
2018-06-25T21:23:56.622Z,65.60
2018-06-25T21:26:25.215Z,65.70
2018-06-25T21:28:54.001Z,65.50
2018-06-25T21:31:22.444Z,66.00
2018-06-25T21:33:51.039Z,65.60
2018-06-25T21:36:19.474Z,65.50
2018-06-25T21:38:47.918Z,65.60
2018-06-25T21:41:16.346Z,65.60
2018-06-25T21:43:45.824Z,65.60
2018-06-25T21:46:15.605Z,65.60
2018-06-25T21:48:45.339Z,65.70
2018-06-25T21:51:13.798Z,65.60
2018-06-25T21:53:42.951Z,65.50
2018-06-25T21:56:11.386Z,65.50
2018-06-25T21:58:39.801Z,65.60
2018-06-25T22:01:08.297Z,65.60
2018-06-25T22:03:36.922Z,65.60
2018-06-25T22:06:05.627Z,65.60
2018-06-25T22:08:34.062Z,65.60
2018-06-25T22:11:02.500Z,65.60
2018-06-25T22:13:30.930Z,65.60
2018-06-25T22:15:59.514Z,65.60
2018-06-25T22:18:27.929Z,65.60
2018-06-25T22:20:56.365Z,65.60
2018-06-25T22:23:24.798Z,65.60
2018-06-25T22:25:53.244Z,65.60
2018-06-25T22:28:21.666Z,66.40
2018-06-25T22:30:50.118Z,65.60
2018-06-25T22:33:18.535Z,65.60
2018-06-25T22:35:46.992Z,65.60
2018-06-25T22:38:15.417Z,65.50
2018-06-25T22:40:44.598Z,65.50
2018-06-25T22:43:13.921Z,65.50
2018-06-25T22:48:10.499Z,66.40
2018-06-25T22:50:38.929Z,66.20
2018-06-25T22:53:07.349Z,65.50
2018-06-25T22:55:36.722Z,65.50
2018-06-25T22:58:05.160Z,65.50
2018-06-25T23:00:34.093Z,65.60
2018-06-25T23:03:02.518Z,65.60
2018-06-25T23:05:30.938Z,65.50
2018-06-25T23:07:59.365Z,65.60
2018-06-25T23:10:27.779Z,65.60
2018-06-25T23:12:56.406Z,65.50
2018-06-25T23:15:24.838Z,65.60
2018-06-25T23:17:53.266Z,65.60
2018-06-25T23:20:21.689Z,65.50
2018-06-25T23:22:55.771Z,65.50
2018-06-25T23:25:24.560Z,65.60
2018-06-25T23:27:53.136Z,65.50
2018-06-25T23:30:21.822Z,65.50
2018-06-25T23:32:50.333Z,65.60
2018-06-25T23:35:19.203Z,65.60
2018-06-25T23:37:47.726Z,65.60
2018-06-25T23:40:16.218Z,65.80
2018-06-25T23:42:45.645Z,65.60
2018-06-25T23:45:14.931Z,65.60
2018-06-25T23:47:43.748Z,65.50
2018-06-25T23:50:13.274Z,65.50
2018-06-25T23:52:41.725Z,65.60
2018-06-25T23:55:10.182Z,65.60
2018-06-25T23:57:38.644Z,65.60
